createdAt,value
2023-04-02T00:01:02.307Z,94.16
2023-04-02T00:03:42.251Z,93.95
2023-04-02T00:06:32.482Z,93.99
2023-04-02T00:09:17.723Z,93.73
2023-04-02T00:11:48.444Z,93.48
2023-04-02T00:14:22.872Z,93.52
2023-04-02T00:16:49.571Z,93.52
2023-04-02T00:19:58.717Z,93.84
2023-04-02T00:22:29.243Z,93.53
2023-04-02T00:24:56.952Z,93.21
2023-04-02T00:27:23.544Z,93.16
2023-04-02T00:29:55.674Z,92.87
2023-04-02T00:32:26.441Z,92.66
2023-04-02T00:34:54.124Z,92.29
2023-04-02T00:37:23.932Z,92.48
2023-04-02T00:39:53.008Z,92.48
2023-04-02T00:42:19.934Z,92.01
2023-04-02T00:44:48.708Z,92.19
2023-04-02T00:47:24.239Z,92.07
2023-04-02T00:49:57.263Z,91.94
2023-04-02T00:52:27.740Z,91.87
2023-04-02T00:55:10.380Z,91.73
2023-04-02T00:57:37.329Z,91.01
2023-04-02T01:00:22.374Z,91.12
2023-04-02T01:03:16.237Z,91.35
2023-04-02T01:06:02.586Z,90.94
2023-04-02T01:08:47.261Z,90.80
2023-04-02T01:11:52.731Z,90.76
2023-04-02T01:14:57.980Z,90.67
2023-04-02T01:17:43.094Z,91.37
2023-04-02T01:20:38.313Z,91.35
2023-04-02T01:23:11.352Z,91.17
2023-04-02T01:25:52.079Z,91.38
2023-04-02T01:28:27.108Z,91.39
2023-04-02T01:30:57.187Z,91.63
2023-04-02T01:33:29.399Z,91.47
2023-04-02T01:36:26.118Z,91.46
2023-04-02T01:39:09.108Z,90.96
2023-04-02T01:41:54.764Z,90.35
2023-04-02T01:44:44.013Z,90.21
2023-04-02T01:47:13.183Z,90.20
2023-04-02T01:49:41.467Z,90.35
2023-04-02T01:52:09.033Z,90.40
2023-04-02T01:54:37.731Z,89.90
2023-04-02T01:57:05.203Z,89.63
2023-04-02T01:59:33.155Z,89.89
2023-04-02T02:02:05.432Z,89.89
2023-04-02T02:04:35.069Z,89.75
2023-04-02T02:07:02.442Z,89.60
2023-04-02T02:09:34.009Z,89.65
2023-04-02T02:12:02.751Z,89.92
2023-04-02T02:14:30.741Z,89.75
2023-04-02T02:17:01.950Z,90.08
2023-04-02T02:19:45.720Z,89.97
2023-04-02T02:22:36.985Z,90.35
2023-04-02T02:25:10.302Z,90.31
2023-04-02T02:28:01.491Z,90.28
2023-04-02T02:30:50.779Z,90.36
2023-04-02T02:33:25.299Z,89.70
2023-04-02T02:36:18.773Z,89.72
2023-04-02T02:38:57.450Z,89.53
2023-04-02T02:41:44.868Z,89.66
2023-04-02T02:44:20.825Z,89.53
2023-04-02T02:46:52.338Z,89.76
2023-04-02T02:49:28.221Z,89.61
2023-04-02T02:52:08.883Z,89.55
2023-04-02T02:55:05.983Z,89.49
2023-04-02T02:57:55.366Z,89.94
2023-04-02T03:00:26.282Z,89.87
2023-04-02T03:02:57.026Z,89.93
2023-04-02T03:05:28.347Z,90.00
2023-04-02T03:08:01.322Z,90.46
2023-04-02T03:10:41.855Z,90.22
2023-04-02T03:13:23.029Z,89.62
2023-04-02T03:16:11.393Z,90.17
2023-04-02T03:19:03.987Z,90.04
2023-04-02T03:21:37.746Z,89.51
2023-04-02T03:24:14.453Z,89.69
2023-04-02T03:26:49.592Z,90.03
2023-04-02T03:29:25.516Z,90.17
2023-04-02T03:32:00.175Z,89.51
2023-04-02T03:34:32.882Z,89.30
2023-04-02T03:37:14.249Z,89.36
2023-04-02T03:40:01.821Z,89.24
2023-04-02T03:42:41.711Z,89.66
2023-04-02T03:45:17.985Z,89.29
2023-04-02T03:48:03.935Z,89.77
2023-04-02T03:50:47.391Z,89.74
2023-04-02T03:53:13.817Z,89.90
2023-04-02T03:55:42.004Z,89.05
2023-04-02T03:58:29.035Z,90.23
2023-04-02T04:01:14.803Z,90.74
2023-04-02T04:03:49.352Z,89.67
2023-04-02T04:06:28.765Z,89.40
2023-04-02T04:09:07.675Z,89.21
2023-04-02T04:11:37.546Z,88.48
2023-04-02T04:14:16.098Z,89.11
2023-04-02T04:17:01.823Z,89.15
2023-04-02T04:19:37.863Z,89.44
2023-04-02T04:22:09.914Z,89.42
2023-04-02T04:24:39.319Z,90.07
2023-04-02T04:27:17.011Z,89.96
2023-04-02T04:29:55.265Z,89.33
2023-04-02T04:32:32.452Z,88.97
2023-04-02T04:35:21.185Z,88.78
2023-04-02T04:37:53.607Z,89.09
2023-04-02T04:40:24.178Z,89.06
2023-04-02T04:43:00.553Z,89.07
2023-04-02T04:46:03.429Z,88.09
2023-04-02T04:48:37.669Z,87.97
2023-04-02T04:51:25.513Z,88.45
2023-04-02T04:53:55.094Z,88.50
2023-04-02T04:56:28.320Z,87.99
2023-04-02T04:59:12.648Z,88.16
2023-04-02T05:01:54.638Z,88.85
2023-04-02T05:04:24.715Z,88.30
2023-04-02T05:07:11.920Z,88.55
2023-04-02T05:09:59.004Z,88.08
2023-04-02T05:12:39.658Z,88.45
2023-04-02T05:15:20.720Z,87.96
2023-04-02T05:18:17.995Z,87.52
2023-04-02T05:20:52.184Z,87.75
2023-04-02T05:23:28.073Z,87.63
2023-04-02T05:26:06.541Z,88.11
2023-04-02T05:28:38.254Z,88.15
2023-04-02T05:31:19.876Z,88.18
2023-04-02T05:33:48.967Z,87.54
2023-04-02T05:36:25.758Z,87.68
2023-04-02T05:38:57.774Z,87.21
2023-04-02T05:41:47.430Z,87.89
2023-04-02T05:44:41.624Z,86.84
2023-04-02T05:47:20.071Z,86.94
2023-04-02T05:49:53.036Z,86.85
2023-04-02T05:52:34.309Z,85.87
2023-04-02T05:55:35.835Z,87.00
2023-04-02T06:01:12.148Z,86.39
2023-04-02T06:03:50.488Z,86.99
2023-04-02T06:06:27.086Z,86.24
2023-04-02T06:09:00.865Z,86.19
2023-04-02T06:11:31.992Z,85.80
2023-04-02T06:14:00.331Z,86.34
2023-04-02T06:16:30.735Z,85.58
2023-04-02T06:18:57.916Z,85.96
2023-04-02T06:21:25.947Z,85.49
2023-04-02T06:24:03.447Z,85.11
2023-04-02T06:26:39.324Z,84.84
2023-04-02T06:29:22.379Z,85.13
2023-04-02T06:31:53.811Z,84.35
2023-04-02T06:34:24.286Z,84.76
2023-04-02T06:36:58.916Z,84.77
2023-04-02T06:39:27.120Z,84.89
2023-04-02T06:42:24.553Z,85.00
2023-04-02T06:45:03.782Z,85.78
2023-04-02T06:47:48.474Z,85.27
2023-04-02T06:51:05.374Z,85.99
2023-04-02T06:53:38.750Z,85.78
2023-04-02T06:56:33.289Z,86.13
2023-04-02T06:59:00.540Z,85.94
2023-04-02T07:01:30.888Z,85.61
2023-04-02T07:03:59.314Z,85.43
2023-04-02T07:06:34.673Z,84.57
2023-04-02T07:09:03.988Z,85.29
2023-04-02T07:11:30.706Z,85.14
2023-04-02T07:14:00.273Z,85.58
2023-04-02T07:16:28.958Z,84.19
2023-04-02T07:18:56.074Z,84.63
2023-04-02T07:21:23.831Z,84.59
2023-04-02T07:23:50.277Z,83.70
2023-04-02T07:26:18.674Z,83.66
2023-04-02T07:28:45.135Z,83.27
2023-04-02T07:31:24.318Z,83.79
2023-04-02T07:33:51.905Z,84.01
2023-04-02T07:36:21.353Z,82.97
2023-04-02T07:38:47.882Z,82.29
2023-04-02T07:41:15.396Z,83.23
2023-04-02T07:43:42.591Z,82.55
2023-04-02T07:46:11.594Z,82.16
2023-04-02T07:48:38.024Z,82.63
2023-04-02T07:51:04.601Z,82.10
2023-04-02T07:53:35.786Z,82.86
2023-04-02T07:56:03.960Z,82.26
2023-04-02T07:58:31.908Z,82.43
2023-04-02T08:00:59.739Z,82.50
2023-04-02T08:03:26.807Z,81.75
2023-04-02T08:05:58.105Z,81.98
2023-04-02T08:08:25.356Z,81.89
2023-04-02T08:10:51.758Z,81.73
2023-04-02T08:13:18.591Z,81.26
2023-04-02T08:15:45.629Z,81.78
2023-04-02T08:18:12.222Z,81.90
2023-04-02T08:20:38.613Z,81.59
2023-04-02T08:23:06.939Z,81.69
2023-04-02T08:25:33.499Z,81.34
2023-04-02T08:28:01.452Z,81.28
2023-04-02T08:30:27.792Z,81.44
2023-04-02T08:32:54.171Z,82.19
2023-04-02T08:35:20.684Z,81.39
2023-04-02T08:37:47.094Z,81.04
2023-04-02T08:40:22.988Z,80.06
2023-04-02T08:43:23.691Z,81.00
2023-04-02T08:46:08.257Z,81.27
2023-04-02T08:48:37.109Z,80.25
2023-04-02T08:51:05.838Z,79.82
2023-04-02T08:53:38.753Z,79.68
2023-04-02T08:56:17.697Z,79.55
2023-04-02T08:58:57.594Z,80.19
2023-04-02T09:01:39.841Z,79.67
2023-04-02T09:04:15.737Z,79.36
2023-04-02T09:06:43.840Z,78.98
2023-04-02T09:09:13.318Z,79.19
2023-04-02T09:12:04.232Z,78.59
2023-04-02T09:14:54.573Z,78.83
2023-04-02T09:17:26.261Z,78.83
2023-04-02T09:20:00.743Z,78.62
2023-04-02T09:22:30.000Z,78.43
2023-04-02T09:25:05.266Z,78.95
2023-04-02T09:27:35.367Z,78.36
2023-04-02T09:30:10.796Z,77.75
2023-04-02T09:32:49.072Z,78.04
2023-04-02T09:35:27.215Z,77.57
2023-04-02T09:38:08.923Z,76.78
2023-04-02T09:40:48.352Z,77.35
2023-04-02T09:43:23.979Z,76.82
2023-04-02T09:46:04.515Z,77.14
2023-04-02T09:48:34.440Z,76.51
2023-04-02T09:51:13.041Z,76.82
2023-04-02T09:53:48.958Z,77.57
2023-04-02T09:56:24.139Z,76.61
2023-04-02T09:59:15.183Z,76.68
2023-04-02T10:01:45.666Z,76.38
2023-04-02T10:04:33.937Z,76.40
2023-04-02T10:07:00.432Z,76.47
2023-04-02T10:09:35.446Z,75.96
2023-04-02T10:12:04.188Z,75.34
2023-04-02T10:14:45.859Z,76.45
2023-04-02T10:17:35.973Z,76.68
2023-04-02T10:20:11.358Z,76.10
2023-04-02T10:22:37.719Z,76.24
2023-04-02T10:25:14.410Z,75.23
2023-04-02T10:27:51.997Z,75.28
2023-04-02T10:30:28.549Z,76.07
2023-04-02T10:33:00.201Z,75.07
2023-04-02T10:35:44.850Z,74.69
2023-04-02T10:38:31.398Z,75.65
2023-04-02T10:41:06.803Z,75.04
2023-04-02T10:43:46.753Z,74.55
2023-04-02T10:46:24.929Z,74.46
2023-04-02T10:49:19.422Z,74.39
2023-04-02T10:51:54.909Z,74.79
2023-04-02T10:54:31.160Z,74.28
2023-04-02T10:57:07.994Z,73.92
2023-04-02T10:59:38.131Z,75.25
2023-04-02T11:02:20.563Z,74.24
2023-04-02T11:04:46.937Z,73.70
2023-04-02T11:07:24.367Z,73.22
2023-04-02T11:09:53.709Z,73.62
2023-04-02T11:12:39.776Z,73.66
2023-04-02T11:15:20.679Z,73.16
2023-04-02T11:17:48.085Z,73.11
2023-04-02T11:20:43.974Z,71.79
2023-04-02T11:23:17.599Z,71.01
2023-04-02T11:25:45.169Z,72.40
2023-04-02T11:28:31.769Z,71.43
2023-04-02T11:30:58.712Z,71.64
2023-04-02T11:33:37.652Z,71.11
2023-04-02T11:36:44.077Z,71.21
2023-04-02T11:39:17.490Z,69.58
2023-04-02T11:42:21.533Z,70.18
2023-04-02T11:44:47.864Z,68.96
2023-04-02T11:47:17.303Z,69.96
2023-04-02T11:49:56.313Z,70.18
2023-04-02T11:52:45.738Z,69.44
2023-04-02T11:55:30.577Z,69.26
2023-04-02T11:58:20.886Z,69.07
2023-04-02T12:01:07.772Z,68.20
2023-04-02T12:03:43.109Z,69.44
2023-04-02T12:06:48.405Z,69.30
2023-04-02T12:09:23.836Z,68.82
2023-04-02T12:11:56.420Z,68.57
2023-04-02T12:14:35.412Z,68.16
2023-04-02T12:17:13.624Z,68.96
2023-04-02T12:19:40.199Z,68.74
2023-04-02T12:22:18.512Z,67.27
2023-04-02T12:24:47.815Z,67.73
2023-04-02T12:27:22.289Z,67.37
2023-04-02T12:29:51.520Z,68.64
2023-04-02T12:32:29.074Z,67.33
2023-04-02T12:34:57.960Z,67.47
2023-04-02T12:37:29.521Z,68.38
2023-04-02T12:40:04.546Z,68.63
2023-04-02T12:42:34.087Z,66.99
2023-04-02T12:45:01.526Z,67.10
2023-04-02T12:47:29.189Z,67.66
2023-04-02T12:49:58.260Z,67.52
2023-04-02T12:52:28.685Z,67.23
2023-04-02T12:54:59.350Z,67.11
2023-04-02T12:57:25.694Z,66.86
2023-04-02T12:59:53.685Z,65.70
2023-04-02T13:02:25.407Z,64.71
2023-04-02T13:04:54.558Z,65.23
2023-04-02T13:07:25.245Z,66.06
2023-04-02T13:09:54.393Z,65.36
2023-04-02T13:12:35.630Z,63.11
2023-04-02T13:15:04.994Z,63.58
2023-04-02T13:17:43.216Z,62.67
2023-04-02T13:20:30.509Z,62.61
2023-04-02T13:22:59.047Z,61.50
2023-04-02T13:25:35.082Z,60.10
2023-04-02T13:28:01.861Z,60.04
2023-04-02T13:30:28.837Z,60.58
2023-04-02T13:32:56.189Z,59.75
2023-04-02T13:35:22.561Z,60.59
2023-04-02T13:37:49.032Z,60.40
2023-04-02T13:40:17.645Z,59.70
2023-04-02T13:42:45.526Z,60.41
2023-04-02T13:45:25.729Z,59.93
2023-04-02T13:47:52.716Z,60.05
2023-04-02T13:50:23.980Z,59.58
2023-04-02T13:52:51.282Z,59.40
2023-04-02T13:55:21.466Z,59.23
2023-04-02T13:57:48.429Z,58.27
2023-04-02T14:00:15.074Z,57.96
2023-04-02T14:02:47.340Z,56.46
2023-04-02T14:05:40.272Z,59.11
2023-04-02T14:08:21.243Z,57.07
2023-04-02T14:11:17.330Z,57.41
2023-04-02T14:13:55.627Z,56.86
2023-04-02T14:16:41.672Z,58.53
2023-04-02T14:19:20.901Z,57.26
2023-04-02T14:22:11.787Z,58.22
2023-04-02T14:25:09.530Z,58.15
2023-04-02T14:27:44.782Z,56.90
2023-04-02T14:30:21.200Z,56.70
2023-04-02T14:33:01.433Z,58.13
2023-04-02T14:35:37.182Z,56.40
2023-04-02T14:38:22.479Z,55.78
2023-04-02T14:41:43.183Z,57.75
2023-04-02T14:44:11.888Z,55.93
2023-04-02T14:46:39.022Z,55.51
2023-04-02T14:49:39.515Z,56.04
2023-04-02T14:52:13.639Z,55.03
2023-04-02T14:54:51.650Z,56.41
2023-04-02T14:57:38.471Z,55.00
2023-04-02T15:00:27.802Z,54.42
2023-04-02T15:03:02.835Z,55.24
2023-04-02T15:05:42.276Z,55.06
2023-04-02T15:08:32.797Z,54.94
2023-04-02T15:11:25.887Z,54.92
2023-04-02T15:14:00.201Z,55.74
2023-04-02T15:16:26.949Z,55.58
2023-04-02T15:18:57.156Z,56.99
2023-04-02T15:21:35.436Z,56.62
2023-04-02T15:24:24.876Z,57.14
2023-04-02T15:27:12.030Z,55.86
2023-04-02T15:30:12.809Z,56.77
2023-04-02T15:32:40.757Z,55.63
2023-04-02T15:35:43.613Z,56.95
2023-04-02T15:38:26.374Z,56.56
2023-04-02T15:41:01.726Z,57.51
2023-04-02T15:43:36.638Z,57.79
2023-04-02T15:46:23.002Z,56.74
2023-04-02T15:48:58.787Z,57.22
2023-04-02T15:51:54.150Z,56.69
2023-04-02T15:54:41.085Z,55.57
2023-04-02T15:57:24.522Z,55.68
2023-04-02T16:00:02.818Z,55.16
2023-04-02T16:03:08.611Z,56.46
2023-04-02T16:05:59.579Z,55.79
2023-04-02T16:08:41.365Z,53.97
2023-04-02T16:11:13.429Z,54.33
2023-04-02T16:13:41.631Z,55.02
2023-04-02T16:16:17.272Z,54.76
2023-04-02T16:19:16.552Z,55.17
2023-04-02T16:21:48.986Z,55.46
2023-04-02T16:24:15.555Z,55.16
2023-04-02T16:26:50.398Z,55.92
2023-04-02T16:29:47.129Z,56.27
2023-04-02T16:32:45.276Z,55.56
2023-04-02T16:35:41.680Z,54.48
2023-04-02T16:38:21.141Z,55.18
2023-04-02T16:41:28.255Z,55.10
2023-04-02T16:44:14.880Z,55.19
2023-04-02T16:46:56.199Z,54.96
2023-04-02T16:49:32.330Z,55.43
2023-04-02T16:52:27.552Z,55.91
2023-04-02T16:55:03.736Z,55.17
2023-04-02T16:57:48.788Z,54.73
2023-04-02T17:00:30.564Z,54.70
2023-04-02T17:03:41.818Z,54.85
2023-04-02T17:06:19.394Z,55.40
2023-04-02T17:09:13.817Z,54.85
2023-04-02T17:11:41.474Z,54.05
2023-04-02T17:14:24.256Z,54.67
2023-04-02T17:16:56.041Z,55.11
2023-04-02T17:19:26.047Z,55.16
2023-04-02T17:21:57.635Z,55.22
2023-04-02T17:24:28.311Z,55.12
2023-04-02T17:27:11.964Z,55.01
2023-04-02T17:29:41.759Z,55.42
2023-04-02T17:32:36.867Z,55.61
2023-04-02T17:35:34.401Z,55.91
2023-04-02T17:38:11.697Z,56.53
2023-04-02T17:40:48.854Z,56.05
2023-04-02T17:43:40.637Z,56.24
2023-04-02T17:46:24.368Z,56.77
2023-04-02T17:49:00.672Z,56.81
2023-04-02T17:51:46.111Z,56.88
2023-04-02T17:54:25.276Z,56.89
2023-04-02T17:57:06.952Z,57.36
2023-04-02T17:59:54.444Z,58.11
2023-04-02T18:02:38.805Z,57.91
2023-04-02T18:05:30.654Z,58.78
2023-04-02T18:08:12.389Z,58.64
2023-04-02T18:10:47.884Z,58.08
2023-04-02T18:13:32.586Z,58.66
2023-04-02T18:16:24.869Z,58.83
2023-04-02T18:18:57.266Z,59.19
2023-04-02T18:21:38.723Z,58.94
2023-04-02T18:24:21.998Z,59.30
2023-04-02T18:27:13.488Z,59.88
2023-04-02T18:29:42.826Z,59.79
2023-04-02T18:32:37.096Z,60.44
2023-04-02T18:35:15.771Z,60.68
2023-04-02T18:38:00.984Z,61.34
2023-04-02T18:40:41.766Z,61.39
2023-04-02T18:43:32.692Z,61.64
2023-04-02T18:46:09.750Z,61.92
2023-04-02T18:48:49.029Z,61.82
2023-04-02T18:51:23.891Z,61.71
2023-04-02T18:54:00.200Z,62.17
2023-04-02T18:56:26.853Z,62.60
2023-04-02T18:58:56.703Z,62.92
2023-04-02T19:01:47.327Z,63.47
2023-04-02T19:04:20.389Z,63.50
2023-04-02T19:06:56.840Z,63.52
2023-04-02T19:09:28.058Z,63.75
2023-04-02T19:11:54.461Z,64.58
2023-04-02T19:14:23.051Z,64.59
2023-04-02T19:17:07.415Z,64.60
2023-04-02T19:19:39.704Z,64.73
2023-04-02T19:22:34.013Z,65.25
2023-04-02T19:25:23.261Z,65.48
2023-04-02T19:27:59.633Z,65.27
2023-04-02T19:30:29.025Z,65.48
2023-04-02T19:33:09.763Z,66.25
2023-04-02T19:35:53.797Z,66.68
2023-04-02T19:38:41.445Z,67.01
2023-04-02T19:41:38.780Z,67.66
2023-04-02T19:44:11.279Z,68.33
2023-04-02T19:46:38.845Z,68.38
2023-04-02T19:49:12.460Z,68.95
2023-04-02T19:51:38.926Z,68.67
2023-04-02T19:54:05.430Z,68.84
2023-04-02T19:56:32.089Z,68.95
2023-04-02T19:59:02.258Z,69.67
2023-04-02T20:01:31.553Z,69.25
2023-04-02T20:03:58.085Z,69.90
2023-04-02T20:06:24.723Z,70.38
2023-04-02T20:08:51.284Z,71.39
2023-04-02T20:11:17.657Z,71.14
2023-04-02T20:13:44.134Z,72.01
2023-04-02T20:16:10.571Z,72.53
2023-04-02T20:18:37.375Z,72.30
2023-04-02T20:21:06.128Z,73.34
2023-04-02T20:23:33.570Z,74.13
2023-04-02T20:26:00.409Z,73.80
2023-04-02T20:28:27.545Z,74.04
2023-04-02T20:30:55.599Z,74.18
2023-04-02T20:33:24.201Z,75.41
2023-04-02T20:35:51.995Z,75.26
2023-04-02T20:38:18.904Z,76.23
2023-04-02T20:40:51.907Z,76.26
2023-04-02T20:43:18.742Z,76.57
2023-04-02T20:46:04.440Z,76.20
2023-04-02T20:48:32.213Z,75.98
2023-04-02T20:51:00.510Z,76.68
2023-04-02T20:53:29.224Z,77.04
2023-04-02T20:56:04.495Z,77.18
2023-04-02T20:58:31.017Z,77.32
2023-04-02T21:01:20.516Z,77.06
2023-04-02T21:03:47.983Z,77.13
2023-04-02T21:06:16.802Z,77.06
2023-04-02T21:08:43.992Z,77.21
2023-04-02T21:11:10.959Z,77.32
2023-04-02T21:13:37.925Z,78.38
2023-04-02T21:16:12.002Z,78.37
2023-04-02T21:18:38.441Z,78.62
2023-04-02T21:21:06.512Z,78.27
2023-04-02T21:23:33.681Z,78.58
2023-04-02T21:26:04.260Z,78.68
2023-04-02T21:28:30.802Z,78.83
2023-04-02T21:31:12.385Z,79.23
2023-04-02T21:33:53.739Z,79.50
2023-04-02T21:36:20.167Z,79.48
2023-04-02T21:38:49.609Z,79.88
2023-04-02T21:41:22.243Z,80.27
2023-04-02T21:43:49.324Z,80.60
2023-04-02T21:46:18.083Z,81.17
2023-04-02T21:48:45.517Z,81.25
2023-04-02T21:51:13.187Z,81.38
2023-04-02T21:53:40.757Z,82.17
2023-04-02T21:56:16.458Z,82.13
2023-04-02T21:58:43.785Z,82.53
2023-04-02T22:01:20.259Z,82.42
2023-04-02T22:03:53.515Z,82.67
2023-04-02T22:06:21.778Z,82.50
2023-04-02T22:08:56.176Z,82.77
2023-04-02T22:11:26.002Z,83.10
2023-04-02T22:13:52.540Z,83.19
2023-04-02T22:16:21.984Z,83.39
2023-04-02T22:18:50.385Z,83.60
2023-04-02T22:21:17.562Z,83.57
2023-04-02T22:23:45.417Z,83.61
2023-04-02T22:26:13.820Z,83.61
2023-04-02T22:28:40.304Z,83.69
2023-04-02T22:31:14.365Z,83.15
2023-04-02T22:33:41.377Z,83.39
2023-04-02T22:36:08.136Z,83.30
2023-04-02T22:38:34.739Z,83.24
2023-04-02T22:41:11.822Z,83.33
2023-04-02T22:43:39.423Z,83.24
2023-04-02T22:46:07.790Z,83.58
2023-04-02T22:48:34.626Z,83.81
2023-04-02T22:51:01.255Z,83.59
2023-04-02T22:53:28.062Z,83.83
2023-04-02T22:55:54.518Z,83.91
2023-04-02T22:58:21.712Z,83.73
2023-04-02T23:00:48.452Z,84.17
2023-04-02T23:03:14.825Z,84.41
2023-04-02T23:05:42.397Z,84.18
2023-04-02T23:08:08.880Z,84.65
2023-04-02T23:10:35.403Z,84.96
2023-04-02T23:13:01.881Z,85.12
2023-04-02T23:15:28.254Z,84.91
2023-04-02T23:17:54.676Z,85.07
2023-04-02T23:20:21.181Z,85.41
2023-04-02T23:22:47.535Z,85.34
2023-04-02T23:25:13.867Z,85.37
2023-04-02T23:27:40.311Z,84.86
2023-04-02T23:30:08.657Z,84.91
2023-04-02T23:32:35.354Z,84.79
2023-04-02T23:35:01.757Z,85.63
2023-04-02T23:37:28.154Z,86.01
2023-04-02T23:39:54.492Z,86.04
2023-04-02T23:42:20.942Z,85.61
2023-04-02T23:44:47.268Z,85.72
2023-04-02T23:47:13.725Z,85.90
2023-04-02T23:49:40.129Z,86.48
2023-04-02T23:52:06.491Z,87.64
2023-04-02T23:54:32.861Z,87.15
2023-04-02T23:56:59.216Z,87.27
2023-04-02T23:59:25.599Z,86.96
